createdAt,value
2023-12-19T00:01:18.423Z,10.90
2023-12-19T00:03:49.928Z,13.80
2023-12-19T00:06:21.382Z,11.00
2023-12-19T00:08:52.625Z,11.40
2023-12-19T00:11:23.916Z,9.90
2023-12-19T00:13:55.517Z,9.00
2023-12-19T00:16:26.848Z,14.80
2023-12-19T00:18:58.410Z,12.00
2023-12-19T00:21:29.848Z,11.30
2023-12-19T00:24:01.046Z,8.90
2023-12-19T00:26:32.371Z,12.10
2023-12-19T00:29:03.754Z,12.40
2023-12-19T00:31:35.511Z,11.80
2023-12-19T00:34:06.978Z,10.40
2023-12-19T00:36:38.340Z,10.40
2023-12-19T00:39:10.532Z,11.80
2023-12-19T00:41:41.879Z,11.80
2023-12-19T00:44:13.449Z,9.40
2023-12-19T00:46:45.069Z,10.50
2023-12-19T00:49:16.471Z,10.80
2023-12-19T00:51:47.777Z,12.60
2023-12-19T00:54:19.757Z,14.00
2023-12-19T00:56:51.145Z,12.60
2023-12-19T00:59:23.118Z,12.60
2023-12-19T01:01:54.640Z,10.80
2023-12-19T01:04:26.504Z,10.40
2023-12-19T01:06:58.741Z,12.90
2023-12-19T01:09:30.281Z,10.60
2023-12-19T01:12:02.967Z,11.20
2023-12-19T01:14:34.436Z,11.00
2023-12-19T01:17:06.345Z,10.80
2023-12-19T01:19:38.485Z,11.30
2023-12-19T01:22:09.966Z,13.00
2023-12-19T01:24:41.319Z,9.00
2023-12-19T01:27:12.653Z,11.00
2023-12-19T01:29:43.960Z,10.70
2023-12-19T01:32:15.563Z,12.40
2023-12-19T01:34:48.038Z,10.70
2023-12-19T01:37:19.711Z,11.80
2023-12-19T01:39:51.217Z,12.00
2023-12-19T01:42:22.930Z,11.20
2023-12-19T01:45:11.565Z,9.70
2023-12-19T01:47:45.656Z,11.00
2023-12-19T01:50:18.773Z,10.50
2023-12-19T01:52:54.555Z,11.90
2023-12-19T01:55:28.545Z,10.30
2023-12-19T01:58:00.534Z,10.80
2023-12-19T02:00:32.535Z,7.10
2023-12-19T02:03:04.637Z,10.80
2023-12-19T02:05:41.500Z,8.30
2023-12-19T02:08:13.004Z,8.30
2023-12-19T02:10:45.511Z,9.20
2023-12-19T02:13:16.831Z,10.00
2023-12-19T02:15:48.558Z,8.30
2023-12-19T02:18:22.697Z,10.20
2023-12-19T02:20:55.035Z,11.90
2023-12-19T02:23:26.372Z,10.40
2023-12-19T02:25:58.236Z,11.40
2023-12-19T02:28:29.577Z,10.80
2023-12-19T02:31:01.007Z,9.10
2023-12-19T02:33:32.469Z,9.40
2023-12-19T02:36:03.801Z,8.80
2023-12-19T02:38:35.161Z,9.00
2023-12-19T02:41:08.948Z,8.40
2023-12-19T02:43:53.358Z,9.40
2023-12-19T02:46:26.665Z,11.80
2023-12-19T02:48:58.103Z,10.40
2023-12-19T02:51:30.632Z,10.80
2023-12-19T02:54:03.486Z,8.60
2023-12-19T02:56:35.644Z,9.70
2023-12-19T02:59:07.078Z,12.00
2023-12-19T03:01:38.395Z,8.20
2023-12-19T03:04:09.949Z,8.80
2023-12-19T03:06:41.478Z,9.70
2023-12-19T03:09:12.840Z,10.00
2023-12-19T03:11:58.806Z,8.30
2023-12-19T03:14:30.933Z,7.80
2023-12-19T03:17:03.261Z,10.70
2023-12-19T03:19:35.328Z,12.10
2023-12-19T03:22:07.370Z,11.20
2023-12-19T03:24:38.786Z,8.50
2023-12-19T03:27:10.142Z,8.80
2023-12-19T03:29:41.427Z,7.20
2023-12-19T03:32:12.866Z,14.70
2023-12-19T03:34:44.267Z,11.50
2023-12-19T03:37:15.661Z,10.60
2023-12-19T03:39:46.994Z,9.10
2023-12-19T03:42:18.446Z,10.50
2023-12-19T03:44:49.725Z,8.50
2023-12-19T03:47:21.021Z,8.30
2023-12-19T03:49:52.380Z,8.10
2023-12-19T03:52:24.913Z,9.40
2023-12-19T03:54:56.260Z,10.00
2023-12-19T03:57:28.809Z,12.20
2023-12-19T04:00:00.311Z,9.30
2023-12-19T04:02:31.760Z,9.10
2023-12-19T04:05:03.156Z,11.00
2023-12-19T04:07:34.507Z,9.20
2023-12-19T04:10:06.758Z,11.20
2023-12-19T04:12:38.741Z,11.40
2023-12-19T04:15:11.879Z,11.20
2023-12-19T04:20:15.252Z,10.30
2023-12-19T04:22:46.751Z,10.70
2023-12-19T04:25:18.574Z,12.20
2023-12-19T04:27:49.900Z,9.90
2023-12-19T04:30:21.355Z,11.20
2023-12-19T04:32:53.707Z,11.00
2023-12-19T04:35:25.183Z,10.10
2023-12-19T04:37:56.437Z,9.70
2023-12-19T04:40:27.717Z,11.20
2023-12-19T04:42:59.045Z,11.30
2023-12-19T04:45:30.400Z,11.90
2023-12-19T04:48:01.763Z,11.90
2023-12-19T04:50:33.194Z,11.80
2023-12-19T04:53:04.641Z,14.40
2023-12-19T04:55:35.953Z,11.50
2023-12-19T04:58:07.406Z,13.70
2023-12-19T05:00:39.483Z,12.60
2023-12-19T05:03:10.919Z,11.50
2023-12-19T05:05:42.470Z,12.60
2023-12-19T05:08:15.324Z,10.10
2023-12-19T05:10:46.611Z,11.70
2023-12-19T05:13:17.953Z,12.90
2023-12-19T05:15:49.353Z,12.40
2023-12-19T05:18:20.911Z,9.60
2023-12-19T05:20:52.361Z,14.60
2023-12-19T05:23:23.700Z,12.80
2023-12-19T05:25:55.035Z,12.80
2023-12-19T05:28:26.414Z,10.10
2023-12-19T05:30:58.031Z,11.10
2023-12-19T05:33:31.264Z,12.40
2023-12-19T05:36:02.832Z,11.80
2023-12-19T05:38:34.568Z,11.60
2023-12-19T05:41:06.475Z,13.00
2023-12-19T05:43:37.832Z,13.60
2023-12-19T05:46:09.261Z,12.10
2023-12-19T05:48:42.293Z,10.80
2023-12-19T05:51:15.043Z,7.50
2023-12-19T05:53:46.442Z,12.50
2023-12-19T05:56:17.768Z,14.20
2023-12-19T05:58:49.416Z,12.80
2023-12-19T06:01:20.908Z,11.20
2023-12-19T06:03:53.026Z,11.10
2023-12-19T06:06:24.560Z,13.20
2023-12-19T06:08:56.401Z,12.10
2023-12-19T06:11:30.783Z,12.80
2023-12-19T06:14:02.102Z,9.40
2023-12-19T06:16:33.844Z,9.10
2023-12-19T06:19:06.762Z,12.20
2023-12-19T06:24:09.775Z,9.20
2023-12-19T06:26:41.567Z,9.90
2023-12-19T06:29:12.832Z,8.50
2023-12-19T06:31:46.825Z,10.80
2023-12-19T06:34:18.417Z,11.30
2023-12-19T06:36:49.846Z,10.50
2023-12-19T06:39:21.153Z,12.00
2023-12-19T06:41:54.369Z,13.50
2023-12-19T06:44:25.914Z,8.40
2023-12-19T06:46:57.274Z,8.50
2023-12-19T06:49:28.862Z,9.40
2023-12-19T06:52:00.536Z,11.80
2023-12-19T06:54:33.575Z,6.40
2023-12-19T06:57:05.337Z,10.60
2023-12-19T06:59:36.637Z,5.40
2023-12-19T07:02:08.652Z,9.90
2023-12-19T07:04:39.919Z,8.10
2023-12-19T07:07:11.416Z,9.00
2023-12-19T07:09:42.710Z,10.20
2023-12-19T07:12:14.072Z,7.20
2023-12-19T07:14:45.341Z,9.10
2023-12-19T07:17:16.622Z,6.30
2023-12-19T07:19:48.458Z,7.60
2023-12-19T07:22:20.083Z,9.20
2023-12-19T07:24:51.409Z,8.90
2023-12-19T07:27:22.717Z,8.70
2023-12-19T07:29:54.056Z,8.20
2023-12-19T07:32:25.559Z,10.80
2023-12-19T07:34:56.908Z,7.90
2023-12-19T07:37:28.289Z,9.20
2023-12-19T07:40:00.839Z,8.10
2023-12-19T07:42:33.454Z,9.10
2023-12-19T07:45:07.698Z,6.70
2023-12-19T07:47:39.766Z,7.00
2023-12-19T07:50:12.897Z,8.10
2023-12-19T07:52:44.443Z,6.80
2023-12-19T07:55:16.376Z,7.40
2023-12-19T07:57:49.112Z,7.50
2023-12-19T08:00:22.132Z,8.40
2023-12-19T08:02:55.040Z,9.00
2023-12-19T08:05:26.500Z,8.20
2023-12-19T08:07:57.772Z,6.50
2023-12-19T08:10:29.023Z,7.50
2023-12-19T08:13:00.352Z,7.80
2023-12-19T08:15:31.803Z,8.60
2023-12-19T08:18:03.236Z,8.10
2023-12-19T08:20:34.909Z,10.50
2023-12-19T08:23:06.635Z,9.80
2023-12-19T08:25:40.074Z,9.20
2023-12-19T08:28:13.793Z,11.60
2023-12-19T08:30:45.463Z,9.90
2023-12-19T08:33:16.890Z,7.30
2023-12-19T08:35:48.230Z,9.00
2023-12-19T08:38:19.632Z,7.90
2023-12-19T08:40:50.877Z,9.90
2023-12-19T08:43:22.204Z,10.70
2023-12-19T08:45:53.578Z,9.90
2023-12-19T08:48:25.553Z,8.60
2023-12-19T08:50:57.725Z,8.00
2023-12-19T08:53:28.988Z,6.90
2023-12-19T08:56:00.334Z,8.70
2023-12-19T08:58:32.020Z,8.20
2023-12-19T09:01:03.504Z,8.00
2023-12-19T09:03:35.214Z,7.00
2023-12-19T09:06:08.173Z,9.60
2023-12-19T09:08:39.518Z,9.30
2023-12-19T09:11:10.964Z,8.80
2023-12-19T09:13:42.251Z,9.10
2023-12-19T09:16:13.769Z,7.80
2023-12-19T09:18:45.548Z,9.60
2023-12-19T09:21:18.264Z,7.70
2023-12-19T09:23:49.552Z,7.20
2023-12-19T09:26:21.143Z,7.90
2023-12-19T09:28:52.683Z,6.20
2023-12-19T09:31:24.225Z,8.30
2023-12-19T09:33:56.210Z,8.50
2023-12-19T09:36:27.778Z,9.70
2023-12-19T09:38:59.303Z,9.70
2023-12-19T09:41:30.769Z,8.50
2023-12-19T09:44:02.139Z,7.80
2023-12-19T09:46:34.752Z,8.00
2023-12-19T09:49:07.091Z,8.20
2023-12-19T09:51:44.727Z,7.40
2023-12-19T09:54:16.776Z,6.90
2023-12-19T09:56:48.688Z,9.00
2023-12-19T09:59:21.969Z,6.90
2023-12-19T10:01:54.465Z,9.30
2023-12-19T10:04:25.909Z,5.20
2023-12-19T10:07:01.208Z,7.60
2023-12-19T10:09:32.709Z,8.80
2023-12-19T10:12:12.310Z,8.90
2023-12-19T10:14:48.017Z,10.10
2023-12-19T10:17:20.796Z,10.30
2023-12-19T10:19:52.262Z,9.00
2023-12-19T10:22:23.990Z,8.40
2023-12-19T10:25:03.595Z,7.30
2023-12-19T10:27:35.358Z,9.50
2023-12-19T10:30:22.257Z,7.20
2023-12-19T10:32:58.788Z,10.30
2023-12-19T10:35:38.414Z,8.80
2023-12-19T10:38:10.516Z,8.70
2023-12-19T10:40:41.901Z,7.20
2023-12-19T10:43:13.239Z,9.90
2023-12-19T10:45:46.087Z,10.00
2023-12-19T10:48:17.613Z,7.50
2023-12-19T10:50:50.051Z,6.30
2023-12-19T10:53:21.852Z,8.10
2023-12-19T10:55:59.294Z,7.70
2023-12-19T10:58:30.594Z,8.90
2023-12-19T11:01:06.744Z,9.10
2023-12-19T11:03:48.626Z,8.80
2023-12-19T11:06:23.602Z,7.40
2023-12-19T11:08:59.267Z,9.40
2023-12-19T11:11:36.672Z,9.50
2023-12-19T11:14:08.108Z,7.40
2023-12-19T11:16:48.261Z,9.30
2023-12-19T11:19:24.565Z,7.90
2023-12-19T11:22:03.061Z,12.40
2023-12-19T11:24:38.841Z,8.10
2023-12-19T11:27:18.619Z,8.70
2023-12-19T11:29:52.621Z,6.90
2023-12-19T11:32:42.570Z,9.30
2023-12-19T11:35:15.941Z,7.60
2023-12-19T11:37:48.587Z,8.30
2023-12-19T11:40:49.963Z,8.70
2023-12-19T11:43:56.336Z,8.80
2023-12-19T11:46:28.171Z,9.40
2023-12-19T11:48:59.820Z,8.50
2023-12-19T11:51:56.587Z,8.80
2023-12-19T11:54:28.144Z,7.90
2023-12-19T11:57:04.492Z,6.70
2023-12-19T11:59:50.410Z,7.40
2023-12-19T12:02:35.447Z,8.30
2023-12-19T12:05:18.718Z,6.90
2023-12-19T12:07:52.551Z,6.40
2023-12-19T12:10:28.080Z,10.00
2023-12-19T12:13:01.063Z,8.70
2023-12-19T12:15:32.515Z,7.80
2023-12-19T12:18:08.840Z,5.50
2023-12-19T12:20:40.624Z,7.70
2023-12-19T12:23:12.033Z,8.10
2023-12-19T12:25:44.027Z,7.20
2023-12-19T12:28:18.930Z,9.40
2023-12-19T12:30:54.882Z,5.40
2023-12-19T12:33:28.865Z,6.00
2023-12-19T12:36:00.583Z,10.50
2023-12-19T12:38:32.179Z,6.50
2023-12-19T12:41:05.741Z,6.80
2023-12-19T12:43:39.958Z,6.20
2023-12-19T12:46:14.295Z,7.30
2023-12-19T12:49:01.496Z,8.20
2023-12-19T12:51:34.172Z,8.50
2023-12-19T12:54:05.755Z,6.80
2023-12-19T12:56:39.760Z,6.90
2023-12-19T12:59:15.264Z,7.00
2023-12-19T13:01:48.186Z,8.00
2023-12-19T13:06:51.439Z,5.40
2023-12-19T13:09:23.141Z,7.80
2023-12-19T13:11:55.399Z,8.60
2023-12-19T13:14:26.896Z,10.10
2023-12-19T13:16:58.298Z,4.80
2023-12-19T13:19:29.814Z,7.40
2023-12-19T13:22:01.293Z,8.00
2023-12-19T13:24:34.519Z,12.50
2023-12-19T13:27:06.627Z,10.30
2023-12-19T13:29:37.903Z,8.50
2023-12-19T13:32:10.272Z,7.80
2023-12-19T13:34:42.411Z,9.20
2023-12-19T13:37:13.932Z,8.10
2023-12-19T13:39:45.250Z,8.80
2023-12-19T13:42:16.670Z,7.40
2023-12-19T13:44:48.136Z,8.70
2023-12-19T13:47:19.389Z,8.00
2023-12-19T13:49:50.834Z,9.20
2023-12-19T13:52:22.929Z,9.20
2023-12-19T13:54:54.440Z,8.50
2023-12-19T13:57:25.944Z,5.70
2023-12-19T13:59:57.202Z,8.20
2023-12-19T14:02:29.321Z,10.20
2023-12-19T14:05:00.793Z,10.40
2023-12-19T14:07:32.219Z,7.60
2023-12-19T14:10:05.992Z,6.40
2023-12-19T14:12:37.657Z,6.70
2023-12-19T14:15:14.893Z,7.60
2023-12-19T14:17:46.901Z,8.40
2023-12-19T14:20:19.232Z,8.00
2023-12-19T14:22:51.162Z,8.80
2023-12-19T14:25:22.787Z,8.00
2023-12-19T14:27:54.211Z,6.30
2023-12-19T14:30:25.774Z,6.80
2023-12-19T14:32:57.222Z,7.90
2023-12-19T14:35:28.571Z,8.30
2023-12-19T14:37:59.860Z,8.10
2023-12-19T14:40:31.244Z,9.10
2023-12-19T14:43:03.394Z,7.00
2023-12-19T14:45:34.914Z,8.00
2023-12-19T14:48:07.718Z,6.40
2023-12-19T14:50:39.166Z,9.30
2023-12-19T14:53:10.664Z,7.30
2023-12-19T14:55:42.395Z,6.90
2023-12-19T14:58:13.856Z,7.90
2023-12-19T15:00:45.609Z,8.40
2023-12-19T15:03:19.524Z,10.30
2023-12-19T15:05:50.858Z,9.60
2023-12-19T15:08:22.148Z,7.30
2023-12-19T15:10:53.884Z,7.60
2023-12-19T15:13:25.288Z,7.80
2023-12-19T15:15:56.636Z,8.50
2023-12-19T15:18:34.259Z,8.60
2023-12-19T15:21:13.973Z,8.90
2023-12-19T15:23:45.292Z,9.50
2023-12-19T15:26:16.555Z,12.30
2023-12-19T15:28:47.894Z,10.70
2023-12-19T15:31:19.327Z,10.70
2023-12-19T15:33:50.770Z,9.30
2023-12-19T15:36:22.241Z,8.30
2023-12-19T15:38:53.567Z,8.40
2023-12-19T15:41:24.884Z,11.00
2023-12-19T15:44:04.693Z,10.60
2023-12-19T15:46:43.161Z,10.40
2023-12-19T15:49:15.522Z,8.00
2023-12-19T15:51:47.291Z,11.30
2023-12-19T15:54:23.335Z,16.80
2023-12-19T15:56:54.638Z,14.60
2023-12-19T15:59:25.963Z,11.00
2023-12-19T16:01:57.247Z,12.80
2023-12-19T16:04:29.416Z,12.10
2023-12-19T16:07:01.141Z,10.30
2023-12-19T16:09:32.495Z,10.10
2023-12-19T16:12:03.925Z,10.60
2023-12-19T16:14:37.003Z,13.10
2023-12-19T16:17:08.689Z,9.30
2023-12-19T16:19:43.302Z,15.50
2023-12-19T16:22:14.755Z,10.90
2023-12-19T16:24:46.225Z,12.10
2023-12-19T16:27:22.618Z,13.70
2023-12-19T16:29:54.291Z,9.60
2023-12-19T16:32:25.520Z,13.40
2023-12-19T16:34:56.765Z,9.80
2023-12-19T16:37:29.684Z,7.60
2023-12-19T16:40:01.033Z,9.10
2023-12-19T16:42:32.565Z,11.10
2023-12-19T16:45:04.223Z,11.00
2023-12-19T16:47:35.777Z,8.00
2023-12-19T16:50:09.550Z,10.20
2023-12-19T16:52:41.082Z,9.50
2023-12-19T16:55:12.962Z,9.60
2023-12-19T16:57:44.452Z,8.70
2023-12-19T17:00:18.402Z,9.20
2023-12-19T17:02:49.739Z,8.60
2023-12-19T17:05:21.192Z,10.20
2023-12-19T17:07:54.002Z,8.40
2023-12-19T17:10:25.551Z,9.60
2023-12-19T17:12:57.003Z,7.00
2023-12-19T17:15:28.401Z,10.60
2023-12-19T17:17:59.748Z,8.80
2023-12-19T17:20:31.332Z,9.20
2023-12-19T17:23:02.618Z,9.20
2023-12-19T17:25:33.948Z,8.80
2023-12-19T17:28:06.089Z,11.00
2023-12-19T17:30:38.419Z,9.70
2023-12-19T17:33:10.476Z,8.10
2023-12-19T17:35:42.426Z,7.90
2023-12-19T17:38:15.526Z,8.30
2023-12-19T17:43:17.665Z,9.80
2023-12-19T17:45:49.208Z,7.60
2023-12-19T17:48:20.762Z,8.90
2023-12-19T17:50:52.164Z,8.80
2023-12-19T17:53:24.087Z,11.30
2023-12-19T17:55:55.413Z,9.10
2023-12-19T17:58:26.674Z,8.80
2023-12-19T18:00:58.026Z,8.40
2023-12-19T18:03:31.398Z,7.70
2023-12-19T18:06:04.515Z,8.40
2023-12-19T18:08:39.134Z,8.00
2023-12-19T18:11:10.575Z,8.30
2023-12-19T18:13:41.925Z,14.50
2023-12-19T18:16:13.520Z,18.90
2023-12-19T18:18:45.113Z,13.90
2023-12-19T18:21:16.836Z,18.80
2023-12-19T18:23:48.133Z,15.00
2023-12-19T18:26:20.231Z,12.80
2023-12-19T18:28:51.571Z,14.00
2023-12-19T18:31:23.240Z,20.70
2023-12-19T18:33:54.785Z,25.10
2023-12-19T18:36:26.296Z,18.90
2023-12-19T18:38:57.782Z,21.00
2023-12-19T18:41:29.087Z,20.50
2023-12-19T18:44:00.551Z,19.20
2023-12-19T18:46:32.060Z,22.30
2023-12-19T18:49:03.752Z,16.50
2023-12-19T18:51:36.093Z,15.70
2023-12-19T18:54:09.556Z,14.10
2023-12-19T18:56:41.169Z,12.50
2023-12-19T18:59:13.151Z,9.00
2023-12-19T19:01:45.698Z,8.60
2023-12-19T19:04:17.086Z,9.90
2023-12-19T19:06:48.509Z,6.00
2023-12-19T19:09:19.904Z,7.90
2023-12-19T19:11:51.164Z,8.70
2023-12-19T19:14:22.449Z,10.30
2023-12-19T19:16:53.716Z,6.40
2023-12-19T19:19:25.229Z,8.60
2023-12-19T19:21:56.736Z,8.00
2023-12-19T19:24:28.741Z,8.70
2023-12-19T19:27:00.536Z,8.30
2023-12-19T19:29:31.937Z,7.90
2023-12-19T19:32:04.596Z,6.90
2023-12-19T19:34:40.478Z,8.60
2023-12-19T19:37:15.689Z,8.40
2023-12-19T19:39:47.570Z,6.90
2023-12-19T19:42:18.856Z,9.00
2023-12-19T19:44:50.118Z,7.60
2023-12-19T19:47:21.385Z,6.40
2023-12-19T19:49:53.685Z,10.30
2023-12-19T19:52:25.176Z,7.80
2023-12-19T19:54:58.185Z,6.70
2023-12-19T19:57:30.152Z,6.60
2023-12-19T20:00:01.818Z,6.70
2023-12-19T20:02:33.340Z,7.90
2023-12-19T20:05:05.154Z,7.20
2023-12-19T20:07:36.646Z,8.10
2023-12-19T20:10:09.597Z,6.00
2023-12-19T20:12:40.982Z,6.10
2023-12-19T20:15:14.708Z,9.20
2023-12-19T20:17:46.164Z,6.50
2023-12-19T20:20:18.194Z,7.50
2023-12-19T20:22:51.279Z,5.80
2023-12-19T20:25:23.611Z,6.90
2023-12-19T20:27:55.108Z,10.20
2023-12-19T20:30:26.507Z,18.40
2023-12-19T20:32:59.028Z,13.50
2023-12-19T20:35:30.610Z,10.30
2023-12-19T20:38:02.109Z,7.40
2023-12-19T20:40:33.581Z,7.30
2023-12-19T20:43:05.369Z,7.90
2023-12-19T20:45:37.130Z,7.10
2023-12-19T20:48:10.819Z,7.20
2023-12-19T20:50:44.162Z,7.50
2023-12-19T20:53:15.646Z,6.70
2023-12-19T20:55:47.318Z,4.60
2023-12-19T20:58:18.696Z,6.40
2023-12-19T21:01:02.267Z,6.60
2023-12-19T21:03:39.895Z,6.20
2023-12-19T21:06:13.031Z,5.40
2023-12-19T21:08:44.507Z,6.10
2023-12-19T21:11:15.865Z,5.70
2023-12-19T21:13:50.127Z,5.80
2023-12-19T21:16:21.567Z,9.70
2023-12-19T21:18:53.268Z,12.00
2023-12-19T21:21:24.771Z,16.00
2023-12-19T21:23:56.074Z,15.40
2023-12-19T21:26:27.336Z,16.60
2023-12-19T21:28:58.640Z,8.60
2023-12-19T21:31:29.948Z,12.70
2023-12-19T21:34:02.567Z,9.70
2023-12-19T21:36:33.991Z,9.00
2023-12-19T21:39:10.839Z,9.70
2023-12-19T21:41:43.329Z,7.60
2023-12-19T21:44:15.410Z,8.10
2023-12-19T21:46:46.714Z,6.00
2023-12-19T21:49:18.033Z,5.70
2023-12-19T21:51:49.415Z,4.90
2023-12-19T21:54:20.783Z,6.70
2023-12-19T21:56:52.195Z,7.80
2023-12-19T21:59:23.519Z,7.40
2023-12-19T22:01:55.167Z,5.00
2023-12-19T22:04:26.815Z,4.30
2023-12-19T22:06:58.995Z,5.00
2023-12-19T22:09:30.364Z,4.40
2023-12-19T22:12:02.125Z,4.80
2023-12-19T22:14:33.439Z,4.40
2023-12-19T22:17:05.237Z,5.20
2023-12-19T22:19:36.924Z,4.10
2023-12-19T22:22:11.766Z,3.90
2023-12-19T22:24:43.360Z,4.60
2023-12-19T22:27:16.772Z,4.60
2023-12-19T22:29:48.831Z,4.10
2023-12-19T22:32:20.118Z,3.90
2023-12-19T22:34:51.499Z,4.20
2023-12-19T22:37:22.860Z,4.00
2023-12-19T22:39:54.384Z,3.50
2023-12-19T22:42:25.709Z,3.60
2023-12-19T22:44:57.121Z,3.30
2023-12-19T22:47:28.454Z,3.60
2023-12-19T22:49:59.844Z,3.90
2023-12-19T22:52:31.159Z,3.70
2023-12-19T22:55:02.469Z,3.50
2023-12-19T22:57:33.821Z,3.30
2023-12-19T23:00:07.678Z,4.10
2023-12-19T23:02:39.071Z,3.10
2023-12-19T23:05:11.500Z,3.70
2023-12-19T23:07:42.949Z,3.50
2023-12-19T23:10:16.337Z,3.60
2023-12-19T23:12:48.233Z,4.20
2023-12-19T23:15:20.111Z,3.30
2023-12-19T23:17:52.694Z,3.20
2023-12-19T23:20:24.961Z,3.80
2023-12-19T23:22:56.484Z,3.70
2023-12-19T23:25:27.791Z,3.10
2023-12-19T23:27:59.292Z,3.30
2023-12-19T23:30:31.417Z,3.50
2023-12-19T23:33:02.827Z,3.50
2023-12-19T23:35:34.454Z,2.90
2023-12-19T23:38:06.553Z,3.80
2023-12-19T23:40:37.926Z,3.30
2023-12-19T23:43:09.263Z,2.60
2023-12-19T23:45:40.779Z,2.70
2023-12-19T23:48:12.147Z,2.50
2023-12-19T23:50:43.483Z,2.70
2023-12-19T23:53:14.760Z,3.30
2023-12-19T23:55:46.174Z,3.40
2023-12-19T23:58:17.449Z,4.20
